sensor_id;sensor_type;location;lat;lon;timestamp;temperature;humidity
74901;DHT22;63461;51.416;6.758;2024-02-28T00:01:50;4.20;99.90
74901;DHT22;63461;51.416;6.758;2024-02-28T00:04:15;4.10;99.90
74901;DHT22;63461;51.416;6.758;2024-02-28T00:06:41;4.20;99.90
74901;DHT22;63461;51.416;6.758;2024-02-28T00:09:07;4.20;99.90
74901;DHT22;63461;51.416;6.758;2024-02-28T00:11:32;4.20;99.90
74901;DHT22;63461;51.416;6.758;2024-02-28T00:13:58;4.10;99.90
74901;DHT22;63461;51.416;6.758;2024-02-28T00:16:28;4.10;99.90
74901;DHT22;63461;51.416;6.758;2024-02-28T00:18:54;4.10;99.90
74901;DHT22;63461;51.416;6.758;2024-02-28T00:21:19;4.10;99.90
74901;DHT22;63461;51.416;6.758;2024-02-28T00:23:45;4.10;99.90
74901;DHT22;63461;51.416;6.758;2024-02-28T00:26:12;3.90;99.90
74901;DHT22;63461;51.416;6.758;2024-02-28T00:28:37;3.90;99.90
74901;DHT22;63461;51.416;6.758;2024-02-28T00:31:03;4.00;99.90
74901;DHT22;63461;51.416;6.758;2024-02-28T00:33:29;3.90;99.90
74901;DHT22;63461;51.416;6.758;2024-02-28T00:35:55;3.90;99.90
74901;DHT22;63461;51.416;6.758;2024-02-28T00:38:20;3.90;99.90
74901;DHT22;63461;51.416;6.758;2024-02-28T00:40:46;3.90;99.90
74901;DHT22;63461;51.416;6.758;2024-02-28T00:43:12;3.90;99.90
74901;DHT22;63461;51.416;6.758;2024-02-28T00:45:38;3.80;99.90
74901;DHT22;63461;51.416;6.758;2024-02-28T00:48:04;3.80;99.90
74901;DHT22;63461;51.416;6.758;2024-02-28T00:50:30;3.80;99.90
74901;DHT22;63461;51.416;6.758;2024-02-28T00:52:55;3.90;99.90
74901;DHT22;63461;51.416;6.758;2024-02-28T00:55:21;3.90;99.90
74901;DHT22;63461;51.416;6.758;2024-02-28T00:57:47;3.90;99.90
74901;DHT22;63461;51.416;6.758;2024-02-28T01:00:13;3.80;99.90
74901;DHT22;63461;51.416;6.758;2024-02-28T01:02:40;3.80;99.90
74901;DHT22;63461;51.416;6.758;2024-02-28T01:05:07;3.80;99.90
74901;DHT22;63461;51.416;6.758;2024-02-28T01:07:33;4.00;99.90
74901;DHT22;63461;51.416;6.758;2024-02-28T01:09:59;3.90;99.90
74901;DHT22;63461;51.416;6.758;2024-02-28T01:12:25;3.90;99.90
74901;DHT22;63461;51.416;6.758;2024-02-28T01:14:50;3.90;99.90
74901;DHT22;63461;51.416;6.758;2024-02-28T01:17:16;4.00;99.90
74901;DHT22;63461;51.416;6.758;2024-02-28T01:19:42;4.00;99.90
74901;DHT22;63461;51.416;6.758;2024-02-28T01:22:08;3.90;99.90
74901;DHT22;63461;51.416;6.758;2024-02-28T01:24:34;4.00;99.90
74901;DHT22;63461;51.416;6.758;2024-02-28T01:27:00;4.00;99.90
74901;DHT22;63461;51.416;6.758;2024-02-28T01:29:26;4.00;99.90
74901;DHT22;63461;51.416;6.758;2024-02-28T01:31:52;3.90;99.90
74901;DHT22;63461;51.416;6.758;2024-02-28T01:34:18;3.90;99.90
74901;DHT22;63461;51.416;6.758;2024-02-28T01:36:44;3.90;99.90
74901;DHT22;63461;51.416;6.758;2024-02-28T01:39:10;3.80;99.90
74901;DHT22;63461;51.416;6.758;2024-02-28T01:41:36;3.90;99.90
74901;DHT22;63461;51.416;6.758;2024-02-28T01:44:01;3.90;99.90
74901;DHT22;63461;51.416;6.758;2024-02-28T01:46:28;3.80;99.90
74901;DHT22;63461;51.416;6.758;2024-02-28T01:48:56;3.80;99.90
74901;DHT22;63461;51.416;6.758;2024-02-28T01:51:24;3.80;99.90
74901;DHT22;63461;51.416;6.758;2024-02-28T01:53:51;3.70;99.90
74901;DHT22;63461;51.416;6.758;2024-02-28T01:56:18;3.70;99.90
74901;DHT22;63461;51.416;6.758;2024-02-28T01:58:48;3.70;99.90
74901;DHT22;63461;51.416;6.758;2024-02-28T02:01:15;3.80;99.90
74901;DHT22;63461;51.416;6.758;2024-02-28T02:03:46;3.70;99.90
74901;DHT22;63461;51.416;6.758;2024-02-28T02:06:12;3.70;99.90
74901;DHT22;63461;51.416;6.758;2024-02-28T02:08:38;3.60;99.90
74901;DHT22;63461;51.416;6.758;2024-02-28T02:11:04;3.60;99.90
74901;DHT22;63461;51.416;6.758;2024-02-28T02:13:31;3.60;99.90
74901;DHT22;63461;51.416;6.758;2024-02-28T02:15:56;3.60;99.90
74901;DHT22;63461;51.416;6.758;2024-02-28T02:18:22;3.60;99.90
74901;DHT22;63461;51.416;6.758;2024-02-28T02:20:56;3.60;99.90
74901;DHT22;63461;51.416;6.758;2024-02-28T02:23:24;3.60;99.90
74901;DHT22;63461;51.416;6.758;2024-02-28T02:25:50;3.70;99.90
74901;DHT22;63461;51.416;6.758;2024-02-28T02:28:16;3.60;99.90
74901;DHT22;63461;51.416;6.758;2024-02-28T02:30:41;3.70;99.90
74901;DHT22;63461;51.416;6.758;2024-02-28T02:33:08;3.70;99.90
74901;DHT22;63461;51.416;6.758;2024-02-28T02:35:34;3.60;99.90
74901;DHT22;63461;51.416;6.758;2024-02-28T02:38:00;3.70;99.90
74901;DHT22;63461;51.416;6.758;2024-02-28T02:40:26;3.80;99.90
74901;DHT22;63461;51.416;6.758;2024-02-28T02:42:52;3.60;99.90
74901;DHT22;63461;51.416;6.758;2024-02-28T02:45:18;3.70;99.90
74901;DHT22;63461;51.416;6.758;2024-02-28T02:47:44;3.70;99.90
74901;DHT22;63461;51.416;6.758;2024-02-28T02:50:10;3.70;99.90
74901;DHT22;63461;51.416;6.758;2024-02-28T02:52:36;3.80;99.90
74901;DHT22;63461;51.416;6.758;2024-02-28T02:55:02;3.80;99.90
74901;DHT22;63461;51.416;6.758;2024-02-28T02:57:27;3.80;99.90
74901;DHT22;63461;51.416;6.758;2024-02-28T02:59:53;3.80;99.90
74901;DHT22;63461;51.416;6.758;2024-02-28T03:02:19;3.90;99.90
74901;DHT22;63461;51.416;6.758;2024-02-28T03:04:45;3.90;99.90
74901;DHT22;63461;51.416;6.758;2024-02-28T03:07:11;3.90;99.90
74901;DHT22;63461;51.416;6.758;2024-02-28T03:09:36;3.90;99.90
74901;DHT22;63461;51.416;6.758;2024-02-28T03:12:02;3.90;99.90
74901;DHT22;63461;51.416;6.758;2024-02-28T03:14:29;4.00;99.90
74901;DHT22;63461;51.416;6.758;2024-02-28T03:16:55;4.00;99.90
74901;DHT22;63461;51.416;6.758;2024-02-28T03:19:20;4.00;99.90
74901;DHT22;63461;51.416;6.758;2024-02-28T03:21:46;4.00;99.90
74901;DHT22;63461;51.416;6.758;2024-02-28T03:24:12;4.10;99.90
74901;DHT22;63461;51.416;6.758;2024-02-28T03:26:38;4.10;99.90
74901;DHT22;63461;51.416;6.758;2024-02-28T03:29:03;4.10;99.90
74901;DHT22;63461;51.416;6.758;2024-02-28T03:31:29;4.20;99.90
74901;DHT22;63461;51.416;6.758;2024-02-28T03:33:55;4.10;99.90
74901;DHT22;63461;51.416;6.758;2024-02-28T03:36:21;4.20;99.90
74901;DHT22;63461;51.416;6.758;2024-02-28T03:38:47;4.30;99.90
74901;DHT22;63461;51.416;6.758;2024-02-28T03:41:15;4.20;99.90
74901;DHT22;63461;51.416;6.758;2024-02-28T03:43:41;4.20;99.90
74901;DHT22;63461;51.416;6.758;2024-02-28T03:46:07;4.20;99.90
74901;DHT22;63461;51.416;6.758;2024-02-28T03:48:33;4.30;99.90
74901;DHT22;63461;51.416;6.758;2024-02-28T03:50:59;4.30;99.90
74901;DHT22;63461;51.416;6.758;2024-02-28T03:53:25;4.40;99.90
74901;DHT22;63461;51.416;6.758;2024-02-28T03:55:50;4.40;99.90
74901;DHT22;63461;51.416;6.758;2024-02-28T03:58:16;4.40;99.90
74901;DHT22;63461;51.416;6.758;2024-02-28T04:00:42;4.40;99.90
74901;DHT22;63461;51.416;6.758;2024-02-28T04:03:10;4.40;99.90
74901;DHT22;63461;51.416;6.758;2024-02-28T04:05:35;4.50;99.90
74901;DHT22;63461;51.416;6.758;2024-02-28T04:08:01;4.40;99.90
74901;DHT22;63461;51.416;6.758;2024-02-28T04:10:27;4.50;99.90
74901;DHT22;63461;51.416;6.758;2024-02-28T04:12:53;4.60;99.90
74901;DHT22;63461;51.416;6.758;2024-02-28T04:15:18;4.60;99.90
74901;DHT22;63461;51.416;6.758;2024-02-28T04:17:44;4.60;99.90
74901;DHT22;63461;51.416;6.758;2024-02-28T04:20:13;4.60;99.90
74901;DHT22;63461;51.416;6.758;2024-02-28T04:22:39;4.60;99.90
74901;DHT22;63461;51.416;6.758;2024-02-28T04:25:07;4.60;99.90
74901;DHT22;63461;51.416;6.758;2024-02-28T04:27:34;4.50;99.90
74901;DHT22;63461;51.416;6.758;2024-02-28T04:30:00;4.60;99.90
74901;DHT22;63461;51.416;6.758;2024-02-28T04:32:25;4.50;99.90
74901;DHT22;63461;51.416;6.758;2024-02-28T04:34:51;4.60;99.90
74901;DHT22;63461;51.416;6.758;2024-02-28T04:37:17;4.60;99.90
74901;DHT22;63461;51.416;6.758;2024-02-28T04:39:43;4.60;99.90
74901;DHT22;63461;51.416;6.758;2024-02-28T04:42:09;4.60;99.90
74901;DHT22;63461;51.416;6.758;2024-02-28T04:44:34;4.60;99.90
74901;DHT22;63461;51.416;6.758;2024-02-28T04:47:01;4.60;99.90
74901;DHT22;63461;51.416;6.758;2024-02-28T04:49:27;4.60;99.90
74901;DHT22;63461;51.416;6.758;2024-02-28T04:51:52;4.60;99.90
74901;DHT22;63461;51.416;6.758;2024-02-28T04:54:18;4.60;99.90
74901;DHT22;63461;51.416;6.758;2024-02-28T04:56:44;4.50;99.90
74901;DHT22;63461;51.416;6.758;2024-02-28T04:59:13;4.50;99.90
74901;DHT22;63461;51.416;6.758;2024-02-28T05:01:39;4.60;99.90
74901;DHT22;63461;51.416;6.758;2024-02-28T05:04:07;4.50;99.90
74901;DHT22;63461;51.416;6.758;2024-02-28T05:06:34;4.50;99.90
74901;DHT22;63461;51.416;6.758;2024-02-28T05:08:59;4.60;99.90
74901;DHT22;63461;51.416;6.758;2024-02-28T05:11:25;4.60;99.90
74901;DHT22;63461;51.416;6.758;2024-02-28T05:13:51;4.60;99.90
74901;DHT22;63461;51.416;6.758;2024-02-28T05:16:17;4.70;99.90
74901;DHT22;63461;51.416;6.758;2024-02-28T05:18:46;4.60;99.90
74901;DHT22;63461;51.416;6.758;2024-02-28T05:21:12;4.60;99.90
74901;DHT22;63461;51.416;6.758;2024-02-28T05:23:38;4.60;99.90
74901;DHT22;63461;51.416;6.758;2024-02-28T05:26:04;4.60;99.90
74901;DHT22;63461;51.416;6.758;2024-02-28T05:28:31;4.60;99.90
74901;DHT22;63461;51.416;6.758;2024-02-28T05:30:58;4.60;99.90
74901;DHT22;63461;51.416;6.758;2024-02-28T05:33:25;4.60;99.90
74901;DHT22;63461;51.416;6.758;2024-02-28T05:35:51;4.60;99.90
74901;DHT22;63461;51.416;6.758;2024-02-28T05:38:17;4.70;99.90
74901;DHT22;63461;51.416;6.758;2024-02-28T05:40:42;4.60;99.90
74901;DHT22;63461;51.416;6.758;2024-02-28T05:43:08;4.70;99.90
74901;DHT22;63461;51.416;6.758;2024-02-28T05:45:34;4.70;99.90
74901;DHT22;63461;51.416;6.758;2024-02-28T05:47:59;4.70;99.90
74901;DHT22;63461;51.416;6.758;2024-02-28T05:50:25;4.80;99.90
74901;DHT22;63461;51.416;6.758;2024-02-28T05:52:51;4.70;99.90
74901;DHT22;63461;51.416;6.758;2024-02-28T05:55:17;4.80;99.90
74901;DHT22;63461;51.416;6.758;2024-02-28T05:57:43;4.80;99.90
74901;DHT22;63461;51.416;6.758;2024-02-28T06:00:09;4.70;99.90
74901;DHT22;63461;51.416;6.758;2024-02-28T06:02:37;4.80;99.90
74901;DHT22;63461;51.416;6.758;2024-02-28T06:05:03;4.80;99.90
74901;DHT22;63461;51.416;6.758;2024-02-28T06:07:30;4.80;99.90
74901;DHT22;63461;51.416;6.758;2024-02-28T06:09:56;4.70;99.90
74901;DHT22;63461;51.416;6.758;2024-02-28T06:12:22;4.80;99.90
74901;DHT22;63461;51.416;6.758;2024-02-28T06:14:48;4.80;99.90
74901;DHT22;63461;51.416;6.758;2024-02-28T06:17:14;4.70;99.90
74901;DHT22;63461;51.416;6.758;2024-02-28T06:19:39;4.70;99.90
74901;DHT22;63461;51.416;6.758;2024-02-28T06:22:05;4.70;99.90
74901;DHT22;63461;51.416;6.758;2024-02-28T06:24:35;4.80;99.90
74901;DHT22;63461;51.416;6.758;2024-02-28T06:27:01;4.70;99.90
74901;DHT22;63461;51.416;6.758;2024-02-28T06:29:27;4.80;99.90
74901;DHT22;63461;51.416;6.758;2024-02-28T06:31:53;4.60;99.90
74901;DHT22;63461;51.416;6.758;2024-02-28T06:34:21;4.70;99.90
74901;DHT22;63461;51.416;6.758;2024-02-28T06:36:48;4.70;99.90
74901;DHT22;63461;51.416;6.758;2024-02-28T06:39:13;4.80;99.90
74901;DHT22;63461;51.416;6.758;2024-02-28T06:41:40;4.80;99.90
74901;DHT22;63461;51.416;6.758;2024-02-28T06:44:06;4.80;99.90
74901;DHT22;63461;51.416;6.758;2024-02-28T06:46:33;4.80;99.90
74901;DHT22;63461;51.416;6.758;2024-02-28T06:48:59;4.80;99.90
74901;DHT22;63461;51.416;6.758;2024-02-28T06:51:24;4.70;99.90
74901;DHT22;63461;51.416;6.758;2024-02-28T06:53:50;4.70;99.90
74901;DHT22;63461;51.416;6.758;2024-02-28T06:56:16;4.50;99.90
74901;DHT22;63461;51.416;6.758;2024-02-28T06:58:41;4.60;99.90
74901;DHT22;63461;51.416;6.758;2024-02-28T07:01:07;4.60;99.90
74901;DHT22;63461;51.416;6.758;2024-02-28T07:03:33;4.70;99.90
74901;DHT22;63461;51.416;6.758;2024-02-28T07:05:59;4.70;99.90
74901;DHT22;63461;51.416;6.758;2024-02-28T07:08:25;4.80;99.90
74901;DHT22;63461;51.416;6.758;2024-02-28T07:10:50;4.70;99.90
74901;DHT22;63461;51.416;6.758;2024-02-28T07:13:22;4.70;99.90
74901;DHT22;63461;51.416;6.758;2024-02-28T07:15:48;4.80;99.90
74901;DHT22;63461;51.416;6.758;2024-02-28T07:18:14;4.80;99.90
74901;DHT22;63461;51.416;6.758;2024-02-28T07:20:40;4.80;99.90
74901;DHT22;63461;51.416;6.758;2024-02-28T07:23:06;4.90;99.90
74901;DHT22;63461;51.416;6.758;2024-02-28T07:25:32;4.90;99.90
74901;DHT22;63461;51.416;6.758;2024-02-28T07:27:58;4.80;99.90
74901;DHT22;63461;51.416;6.758;2024-02-28T07:30:28;4.70;99.90
74901;DHT22;63461;51.416;6.758;2024-02-28T07:32:54;4.90;99.90
74901;DHT22;63461;51.416;6.758;2024-02-28T07:35:20;5.00;99.90
74901;DHT22;63461;51.416;6.758;2024-02-28T07:37:46;5.00;99.90
74901;DHT22;63461;51.416;6.758;2024-02-28T07:40:13;5.10;99.90
74901;DHT22;63461;51.416;6.758;2024-02-28T07:42:39;5.10;99.90
74901;DHT22;63461;51.416;6.758;2024-02-28T07:45:05;5.10;99.90
74901;DHT22;63461;51.416;6.758;2024-02-28T07:47:34;5.10;99.90
74901;DHT22;63461;51.416;6.758;2024-02-28T07:50:00;5.10;99.90
74901;DHT22;63461;51.416;6.758;2024-02-28T07:52:25;5.10;99.90
74901;DHT22;63461;51.416;6.758;2024-02-28T07:54:51;5.00;99.90
74901;DHT22;63461;51.416;6.758;2024-02-28T07:57:17;5.00;99.90
74901;DHT22;63461;51.416;6.758;2024-02-28T07:59:43;5.10;99.90
74901;DHT22;63461;51.416;6.758;2024-02-28T08:02:09;5.20;99.90
74901;DHT22;63461;51.416;6.758;2024-02-28T08:04:37;5.20;99.90
74901;DHT22;63461;51.416;6.758;2024-02-28T08:07:03;5.20;99.90
74901;DHT22;63461;51.416;6.758;2024-02-28T08:09:29;5.20;99.90
74901;DHT22;63461;51.416;6.758;2024-02-28T08:11:55;5.30;99.90
74901;DHT22;63461;51.416;6.758;2024-02-28T08:14:20;5.30;99.90
74901;DHT22;63461;51.416;6.758;2024-02-28T08:16:46;5.40;99.90
74901;DHT22;63461;51.416;6.758;2024-02-28T08:19:12;5.40;99.90
74901;DHT22;63461;51.416;6.758;2024-02-28T08:21:38;5.40;99.90
74901;DHT22;63461;51.416;6.758;2024-02-28T08:24:04;5.50;99.90
74901;DHT22;63461;51.416;6.758;2024-02-28T08:26:31;5.50;99.90
74901;DHT22;63461;51.416;6.758;2024-02-28T08:28:57;5.40;99.90
74901;DHT22;63461;51.416;6.758;2024-02-28T08:31:23;5.50;99.90
74901;DHT22;63461;51.416;6.758;2024-02-28T08:33:49;5.50;99.90
74901;DHT22;63461;51.416;6.758;2024-02-28T08:36:14;5.50;99.90
74901;DHT22;63461;51.416;6.758;2024-02-28T08:38:43;5.50;99.90
74901;DHT22;63461;51.416;6.758;2024-02-28T08:41:10;5.40;99.90
74901;DHT22;63461;51.416;6.758;2024-02-28T08:43:40;5.40;99.90
74901;DHT22;63461;51.416;6.758;2024-02-28T08:46:06;5.50;99.90
74901;DHT22;63461;51.416;6.758;2024-02-28T08:48:33;5.40;99.90
74901;DHT22;63461;51.416;6.758;2024-02-28T08:50:58;5.30;99.90
74901;DHT22;63461;51.416;6.758;2024-02-28T08:53:24;5.50;99.90
74901;DHT22;63461;51.416;6.758;2024-02-28T08:55:50;5.70;99.90
74901;DHT22;63461;51.416;6.758;2024-02-28T08:58:16;5.70;99.90
74901;DHT22;63461;51.416;6.758;2024-02-28T09:00:42;5.60;99.90
74901;DHT22;63461;51.416;6.758;2024-02-28T09:03:07;5.90;99.90
74901;DHT22;63461;51.416;6.758;2024-02-28T09:05:33;6.00;99.90
74901;DHT22;63461;51.416;6.758;2024-02-28T09:08:02;6.00;99.90
74901;DHT22;63461;51.416;6.758;2024-02-28T09:10:28;6.00;99.90
74901;DHT22;63461;51.416;6.758;2024-02-28T09:12:56;6.00;99.90
74901;DHT22;63461;51.416;6.758;2024-02-28T09:15:22;6.10;99.90
74901;DHT22;63461;51.416;6.758;2024-02-28T09:17:48;6.20;99.90
74901;DHT22;63461;51.416;6.758;2024-02-28T09:20:14;6.20;99.90
74901;DHT22;63461;51.416;6.758;2024-02-28T09:22:40;6.30;99.90
74901;DHT22;63461;51.416;6.758;2024-02-28T09:25:06;6.20;99.90
74901;DHT22;63461;51.416;6.758;2024-02-28T09:27:35;6.30;99.90
74901;DHT22;63461;51.416;6.758;2024-02-28T09:30:02;6.40;99.90
74901;DHT22;63461;51.416;6.758;2024-02-28T09:32:28;6.30;99.90
74901;DHT22;63461;51.416;6.758;2024-02-28T09:34:54;6.30;99.90
74901;DHT22;63461;51.416;6.758;2024-02-28T09:37:20;6.30;99.90
74901;DHT22;63461;51.416;6.758;2024-02-28T09:39:48;6.40;99.90
74901;DHT22;63461;51.416;6.758;2024-02-28T09:42:14;6.30;99.90
74901;DHT22;63461;51.416;6.758;2024-02-28T09:44:41;6.40;99.90
74901;DHT22;63461;51.416;6.758;2024-02-28T09:47:08;6.50;99.90
74901;DHT22;63461;51.416;6.758;2024-02-28T09:49:34;6.50;99.90
74901;DHT22;63461;51.416;6.758;2024-02-28T09:52:03;6.50;99.90
74901;DHT22;63461;51.416;6.758;2024-02-28T09:54:29;6.50;99.90
74901;DHT22;63461;51.416;6.758;2024-02-28T09:56:55;6.60;99.90
74901;DHT22;63461;51.416;6.758;2024-02-28T09:59:23;6.80;99.90
74901;DHT22;63461;51.416;6.758;2024-02-28T10:01:56;7.00;99.90
74901;DHT22;63461;51.416;6.758;2024-02-28T10:04:23;7.30;99.90
74901;DHT22;63461;51.416;6.758;2024-02-28T10:06:50;7.30;99.90
74901;DHT22;63461;51.416;6.758;2024-02-28T10:09:16;7.20;99.90
74901;DHT22;63461;51.416;6.758;2024-02-28T10:11:42;7.10;99.90
74901;DHT22;63461;51.416;6.758;2024-02-28T10:14:12;7.10;99.90
74901;DHT22;63461;51.416;6.758;2024-02-28T10:16:42;7.20;99.90
74901;DHT22;63461;51.416;6.758;2024-02-28T10:19:08;7.20;99.90
74901;DHT22;63461;51.416;6.758;2024-02-28T10:21:34;7.20;99.90
74901;DHT22;63461;51.416;6.758;2024-02-28T10:23:59;7.20;99.90
74901;DHT22;63461;51.416;6.758;2024-02-28T10:26:25;7.10;99.90
74901;DHT22;63461;51.416;6.758;2024-02-28T10:28:51;7.10;99.90
74901;DHT22;63461;51.416;6.758;2024-02-28T10:31:21;7.00;99.90
74901;DHT22;63461;51.416;6.758;2024-02-28T10:33:47;7.00;99.90
74901;DHT22;63461;51.416;6.758;2024-02-28T10:36:13;7.20;99.90
74901;DHT22;63461;51.416;6.758;2024-02-28T10:38:38;7.20;99.90
74901;DHT22;63461;51.416;6.758;2024-02-28T10:41:06;7.40;99.90
74901;DHT22;63461;51.416;6.758;2024-02-28T10:43:32;7.40;99.90
74901;DHT22;63461;51.416;6.758;2024-02-28T10:46:00;7.30;99.90
74901;DHT22;63461;51.416;6.758;2024-02-28T10:48:27;7.30;99.90
74901;DHT22;63461;51.416;6.758;2024-02-28T10:50:53;7.40;99.90
74901;DHT22;63461;51.416;6.758;2024-02-28T10:53:32;7.40;99.90
74901;DHT22;63461;51.416;6.758;2024-02-28T10:56:02;7.50;99.90
74901;DHT22;63461;51.416;6.758;2024-02-28T10:58:34;7.50;99.90
74901;DHT22;63461;51.416;6.758;2024-02-28T11:01:02;7.80;99.90
74901;DHT22;63461;51.416;6.758;2024-02-28T11:03:29;7.70;99.90
74901;DHT22;63461;51.416;6.758;2024-02-28T11:05:55;7.90;99.90
74901;DHT22;63461;51.416;6.758;2024-02-28T11:08:23;7.60;99.90
74901;DHT22;63461;51.416;6.758;2024-02-28T11:11:01;7.60;99.90
74901;DHT22;63461;51.416;6.758;2024-02-28T11:13:28;7.60;99.90
74901;DHT22;63461;51.416;6.758;2024-02-28T11:15:54;7.70;99.90
74901;DHT22;63461;51.416;6.758;2024-02-28T11:18:23;7.70;99.90
74901;DHT22;63461;51.416;6.758;2024-02-28T11:20:48;7.80;99.90
74901;DHT22;63461;51.416;6.758;2024-02-28T11:23:17;7.80;99.90
74901;DHT22;63461;51.416;6.758;2024-02-28T11:25:43;7.90;99.90
74901;DHT22;63461;51.416;6.758;2024-02-28T11:28:09;7.90;99.90
74901;DHT22;63461;51.416;6.758;2024-02-28T11:30:35;8.10;99.90
74901;DHT22;63461;51.416;6.758;2024-02-28T11:33:01;8.10;99.90
74901;DHT22;63461;51.416;6.758;2024-02-28T11:35:28;8.10;99.90
74901;DHT22;63461;51.416;6.758;2024-02-28T11:37:55;8.10;99.90
74901;DHT22;63461;51.416;6.758;2024-02-28T11:40:26;8.20;99.90
74901;DHT22;63461;51.416;6.758;2024-02-28T11:42:52;8.40;99.90
74901;DHT22;63461;51.416;6.758;2024-02-28T11:45:18;8.30;99.90
74901;DHT22;63461;51.416;6.758;2024-02-28T11:47:44;8.30;99.90
74901;DHT22;63461;51.416;6.758;2024-02-28T11:50:11;8.40;99.90
74901;DHT22;63461;51.416;6.758;2024-02-28T11:52:37;8.40;99.90
74901;DHT22;63461;51.416;6.758;2024-02-28T11:55:03;8.50;99.90
74901;DHT22;63461;51.416;6.758;2024-02-28T11:57:29;8.60;99.90
74901;DHT22;63461;51.416;6.758;2024-02-28T12:00:06;8.60;99.90
74901;DHT22;63461;51.416;6.758;2024-02-28T12:02:33;8.50;99.90
74901;DHT22;63461;51.416;6.758;2024-02-28T12:05:03;8.40;99.90
74901;DHT22;63461;51.416;6.758;2024-02-28T12:07:31;8.50;99.90
74901;DHT22;63461;51.416;6.758;2024-02-28T12:09:58;8.50;99.90
74901;DHT22;63461;51.416;6.758;2024-02-28T12:12:24;8.50;99.90
74901;DHT22;63461;51.416;6.758;2024-02-28T12:14:50;8.50;99.90
74901;DHT22;63461;51.416;6.758;2024-02-28T12:17:16;8.40;99.90
74901;DHT22;63461;51.416;6.758;2024-02-28T12:19:42;8.40;99.90
74901;DHT22;63461;51.416;6.758;2024-02-28T12:22:08;8.40;99.90
74901;DHT22;63461;51.416;6.758;2024-02-28T12:24:34;8.40;99.90
74901;DHT22;63461;51.416;6.758;2024-02-28T12:27:00;8.40;99.90
74901;DHT22;63461;51.416;6.758;2024-02-28T12:29:26;8.50;99.90
74901;DHT22;63461;51.416;6.758;2024-02-28T12:31:52;8.50;99.90
74901;DHT22;63461;51.416;6.758;2024-02-28T12:34:18;8.70;99.90
74901;DHT22;63461;51.416;6.758;2024-02-28T12:36:44;8.70;99.90
74901;DHT22;63461;51.416;6.758;2024-02-28T12:39:10;8.70;99.90
74901;DHT22;63461;51.416;6.758;2024-02-28T12:41:39;8.70;99.90
74901;DHT22;63461;51.416;6.758;2024-02-28T12:44:08;8.80;99.90
74901;DHT22;63461;51.416;6.758;2024-02-28T12:46:35;8.80;99.90
74901;DHT22;63461;51.416;6.758;2024-02-28T12:49:01;8.80;99.90
74901;DHT22;63461;51.416;6.758;2024-02-28T12:51:40;8.80;99.90
74901;DHT22;63461;51.416;6.758;2024-02-28T12:54:07;9.00;99.90
74901;DHT22;63461;51.416;6.758;2024-02-28T12:56:35;9.00;99.90
74901;DHT22;63461;51.416;6.758;2024-02-28T12:59:01;9.20;99.90
74901;DHT22;63461;51.416;6.758;2024-02-28T13:01:27;9.10;99.90
74901;DHT22;63461;51.416;6.758;2024-02-28T13:03:54;9.00;99.90
74901;DHT22;63461;51.416;6.758;2024-02-28T13:06:20;9.10;99.90
74901;DHT22;63461;51.416;6.758;2024-02-28T13:08:45;9.10;99.90
74901;DHT22;63461;51.416;6.758;2024-02-28T13:11:18;9.10;99.90
74901;DHT22;63461;51.416;6.758;2024-02-28T13:13:45;9.10;99.90
74901;DHT22;63461;51.416;6.758;2024-02-28T13:16:11;9.20;99.90
74901;DHT22;63461;51.416;6.758;2024-02-28T13:18:36;9.30;99.90
74901;DHT22;63461;51.416;6.758;2024-02-28T13:21:03;9.30;99.90
74901;DHT22;63461;51.416;6.758;2024-02-28T13:23:30;9.30;99.90
74901;DHT22;63461;51.416;6.758;2024-02-28T13:25:57;9.40;99.90
74901;DHT22;63461;51.416;6.758;2024-02-28T13:28:22;9.40;99.90
74901;DHT22;63461;51.416;6.758;2024-02-28T13:30:59;9.40;99.90
74901;DHT22;63461;51.416;6.758;2024-02-28T13:33:25;9.50;99.90
74901;DHT22;63461;51.416;6.758;2024-02-28T13:35:52;9.50;99.90
74901;DHT22;63461;51.416;6.758;2024-02-28T13:38:19;9.60;99.90
74901;DHT22;63461;51.416;6.758;2024-02-28T13:40:48;9.60;99.90
74901;DHT22;63461;51.416;6.758;2024-02-28T13:43:14;9.60;99.90
74901;DHT22;63461;51.416;6.758;2024-02-28T13:45:41;9.60;99.90
74901;DHT22;63461;51.416;6.758;2024-02-28T13:48:18;9.60;99.90
74901;DHT22;63461;51.416;6.758;2024-02-28T13:50:46;9.60;99.90
74901;DHT22;63461;51.416;6.758;2024-02-28T13:53:14;9.60;99.90
74901;DHT22;63461;51.416;6.758;2024-02-28T13:55:43;9.70;99.90
74901;DHT22;63461;51.416;6.758;2024-02-28T13:58:11;9.70;99.90
74901;DHT22;63461;51.416;6.758;2024-02-28T14:00:40;9.70;99.90
74901;DHT22;63461;51.416;6.758;2024-02-28T14:03:06;9.70;99.90
74901;DHT22;63461;51.416;6.758;2024-02-28T14:05:32;9.70;99.90
74901;DHT22;63461;51.416;6.758;2024-02-28T14:07:58;9.80;99.90
74901;DHT22;63461;51.416;6.758;2024-02-28T14:10:25;9.70;99.90
74901;DHT22;63461;51.416;6.758;2024-02-28T14:12:51;9.80;99.90
74901;DHT22;63461;51.416;6.758;2024-02-28T14:15:21;9.70;99.90
74901;DHT22;63461;51.416;6.758;2024-02-28T14:17:51;9.80;99.90
74901;DHT22;63461;51.416;6.758;2024-02-28T14:20:17;9.90;99.90
74901;DHT22;63461;51.416;6.758;2024-02-28T14:22:43;9.80;99.90
74901;DHT22;63461;51.416;6.758;2024-02-28T14:25:11;9.80;99.90
74901;DHT22;63461;51.416;6.758;2024-02-28T14:27:39;9.80;99.90
74901;DHT22;63461;51.416;6.758;2024-02-28T14:30:08;9.80;99.90
74901;DHT22;63461;51.416;6.758;2024-02-28T14:32:38;9.80;99.90
74901;DHT22;63461;51.416;6.758;2024-02-28T14:35:05;9.90;99.90
74901;DHT22;63461;51.416;6.758;2024-02-28T14:37:35;10.00;99.90
74901;DHT22;63461;51.416;6.758;2024-02-28T14:40:02;10.00;99.90
74901;DHT22;63461;51.416;6.758;2024-02-28T14:42:32;10.00;99.90
74901;DHT22;63461;51.416;6.758;2024-02-28T14:44:59;9.90;99.90
74901;DHT22;63461;51.416;6.758;2024-02-28T14:47:25;10.00;99.90
74901;DHT22;63461;51.416;6.758;2024-02-28T14:49:51;9.90;99.90
74901;DHT22;63461;51.416;6.758;2024-02-28T14:52:16;9.90;99.90
74901;DHT22;63461;51.416;6.758;2024-02-28T14:54:42;9.90;99.90
74901;DHT22;63461;51.416;6.758;2024-02-28T14:57:10;9.90;99.90
74901;DHT22;63461;51.416;6.758;2024-02-28T14:59:36;10.00;99.90
74901;DHT22;63461;51.416;6.758;2024-02-28T15:02:01;10.00;99.90
74901;DHT22;63461;51.416;6.758;2024-02-28T15:04:27;10.10;99.90
74901;DHT22;63461;51.416;6.758;2024-02-28T15:06:53;10.00;99.90
74901;DHT22;63461;51.416;6.758;2024-02-28T15:09:19;10.10;99.90
74901;DHT22;63461;51.416;6.758;2024-02-28T15:11:48;10.00;99.90
74901;DHT22;63461;51.416;6.758;2024-02-28T15:14:14;9.90;99.90
74901;DHT22;63461;51.416;6.758;2024-02-28T15:16:40;9.90;99.90
74901;DHT22;63461;51.416;6.758;2024-02-28T15:19:06;10.00;99.90
74901;DHT22;63461;51.416;6.758;2024-02-28T15:21:32;9.90;99.90
74901;DHT22;63461;51.416;6.758;2024-02-28T15:23:57;9.90;99.90
74901;DHT22;63461;51.416;6.758;2024-02-28T15:26:23;9.80;99.90
74901;DHT22;63461;51.416;6.758;2024-02-28T15:28:49;9.80;99.90
74901;DHT22;63461;51.416;6.758;2024-02-28T15:31:15;9.80;99.90
74901;DHT22;63461;51.416;6.758;2024-02-28T15:33:41;9.80;99.90
74901;DHT22;63461;51.416;6.758;2024-02-28T15:36:07;9.90;99.90
74901;DHT22;63461;51.416;6.758;2024-02-28T15:38:33;9.80;99.90
74901;DHT22;63461;51.416;6.758;2024-02-28T15:41:00;9.70;99.90